Time;durP1;ratioP1;P1;durP2;ratioP2;P2;SDS_P1;SDS_P2;PMS_P1;PMS_P2;Temp;Humidity;BMP_temperature;BMP_pressure;BME280_temperature;BME280_humidity;BME280_pressure;Samples;Min_cycle;Max_cycle;Signal;HPM_P1;HPM_P2
2024/02/09 00:01:37;;;;;;;7.57;5.38;;;;;;;;;;4906750;29;20052;-77
2024/02/09 00:04:16;;;;;;;7.15;5.60;;;;;;;;;;4906163;29;20051;-76
2024/02/09 00:07:10;;;;;;;10.30;5.65;;;;;;;;;;4906166;29;20063;-75
2024/02/09 00:09:42;;;;;;;8.98;5.97;;;;;;;;;;4906887;29;20051;-77
2024/02/09 00:12:12;;;;;;;9.20;6.43;;;;;;;;;;4906016;29;20416;-77
2024/02/09 00:14:44;;;;;;;9.48;6.55;;;;;;;;;;4905951;29;20048;-74
2024/02/09 00:17:15;;;;;;;13.57;6.05;;;;;;;;;;4905669;29;20492;-74
2024/02/09 00:19:47;;;;;;;13.60;6.25;;;;;;;;;;4905924;29;20059;-74
2024/02/09 00:22:17;;;;;;;9.10;5.88;;;;;;;;;;4905412;29;20056;-75
2024/02/09 00:24:47;;;;;;;11.68;5.90;;;;;;;;;;4905043;29;20056;-75
2024/02/09 00:27:19;;;;;;;9.65;6.40;;;;;;;;;;4903279;29;20424;-75
2024/02/09 00:29:50;;;;;;;8.43;5.43;;;;;;;;;;4906767;29;20052;-75
2024/02/09 00:32:22;;;;;;;8.68;5.57;;;;;;;;;;4906651;29;20518;-75
2024/02/09 00:34:55;;;;;;;8.77;5.43;;;;;;;;;;4905785;29;20056;-75
2024/02/09 00:37:28;;;;;;;13.38;5.78;;;;;;;;;;4906334;29;20048;-75
2024/02/09 00:40:04;;;;;;;13.13;5.35;;;;;;;;;;4905808;29;20056;-76
2024/02/09 00:42:35;;;;;;;12.98;5.47;;;;;;;;;;4906125;29;20052;-75
2024/02/09 00:45:07;;;;;;;12.18;4.88;;;;;;;;;;4904566;29;20059;-75
2024/02/09 00:47:38;;;;;;;11.10;4.70;;;;;;;;;;4905866;29;20059;-75
2024/02/09 00:50:11;;;;;;;10.75;5.35;;;;;;;;;;4906117;29;20075;-75
2024/02/09 00:52:42;;;;;;;9.32;4.85;;;;;;;;;;4906002;29;20522;-74
2024/02/09 00:55:12;;;;;;;11.20;4.95;;;;;;;;;;4905240;29;20052;-74
2024/02/09 00:57:44;;;;;;;8.77;5.15;;;;;;;;;;4906146;29;20044;-75
2024/02/09 01:00:18;;;;;;;9.13;5.50;;;;;;;;;;4909512;29;20381;-75
2024/02/09 01:02:51;;;;;;;11.73;5.00;;;;;;;;;;4910064;29;20048;-75
2024/02/09 01:05:22;;;;;;;9.15;5.45;;;;;;;;;;4909481;29;20374;-75
2024/02/09 01:07:53;;;;;;;7.47;4.45;;;;;;;;;;4909810;29;20629;-75
2024/02/09 01:10:25;;;;;;;8.73;4.97;;;;;;;;;;4909172;29;20058;-75
2024/02/09 02:45:53;;;;;;;5.90;4.50;;;;;;;;;;4907702;29;20070;-75
2024/02/09 03:05:44;;;;;;;9.00;5.18;;;;;;;;;;4906291;29;20094;-74
2024/02/09 03:08:25;;;;;;;12.85;6.00;;;;;;;;;;4907117;29;20052;-75
2024/02/09 03:11:16;;;;;;;11.60;6.53;;;;;;;;;;4907576;29;20431;-74
2024/02/09 03:13:49;;;;;;;12.73;6.13;;;;;;;;;;4908633;29;20047;-74
2024/02/09 03:16:20;;;;;;;8.82;5.15;;;;;;;;;;4907144;29;20059;-74
2024/02/09 03:18:50;;;;;;;11.20;5.72;;;;;;;;;;4907548;29;20052;-75
2024/02/09 03:21:25;;;;;;;17.77;6.60;;;;;;;;;;4906183;29;20064;-75
2024/02/09 03:23:57;;;;;;;10.05;5.80;;;;;;;;;;4907829;29;20048;-74
2024/02/09 03:26:27;;;;;;;9.73;5.93;;;;;;;;;;4906737;29;20052;-75
2024/02/09 03:28:58;;;;;;;12.30;6.18;;;;;;;;;;4907151;29;20051;-74
2024/02/09 03:31:30;;;;;;;13.60;6.03;;;;;;;;;;4906832;29;20071;-75
2024/02/09 03:34:01;;;;;;;10.05;5.93;;;;;;;;;;4906995;29;20366;-74
2024/02/09 03:36:34;;;;;;;15.35;6.75;;;;;;;;;;4907181;29;20051;-74
2024/02/09 03:39:07;;;;;;;15.43;7.18;;;;;;;;;;4906758;29;20531;-75
2024/02/09 03:41:39;;;;;;;12.35;7.43;;;;;;;;;;4905299;29;20052;-75
2024/02/09 03:44:10;;;;;;;14.50;8.27;;;;;;;;;;4906701;29;20048;-74
2024/02/09 03:46:40;;;;;;;13.73;8.23;;;;;;;;;;4906819;29;20099;-74
2024/02/09 03:49:11;;;;;;;15.90;8.75;;;;;;;;;;4906481;29;20523;-74
2024/02/09 03:51:43;;;;;;;12.43;8.68;;;;;;;;;;4904615;29;20056;-74
2024/02/09 03:54:14;;;;;;;13.65;8.73;;;;;;;;;;4906776;29;20864;-75
2024/02/09 03:56:46;;;;;;;12.38;8.82;;;;;;;;;;4906773;29;20059;-74
2024/02/09 03:59:17;;;;;;;13.43;8.85;;;;;;;;;;4906177;29;20040;-74
2024/02/09 04:01:49;;;;;;;21.05;9.68;;;;;;;;;;4906383;29;20059;-74
2024/02/09 04:04:20;;;;;;;12.82;9.90;;;;;;;;;;4906345;29;20515;-74
2024/02/09 04:06:51;;;;;;;13.98;9.77;;;;;;;;;;4906681;29;20062;-75
2024/02/09 04:09:21;;;;;;;19.05;10.88;;;;;;;;;;4907335;29;20498;-74
2024/02/09 04:12:11;;;;;;;16.60;11.07;;;;;;;;;;4906661;29;20052;-74
2024/02/09 04:14:42;;;;;;;22.00;11.82;;;;;;;;;;4906360;29;20051;-74
2024/02/09 04:17:13;;;;;;;17.25;11.25;;;;;;;;;;4906159;29;20048;-74
2024/02/09 04:19:43;;;;;;;17.67;11.80;;;;;;;;;;4906490;29;20059;-74
2024/02/09 04:22:15;;;;;;;17.98;12.77;;;;;;;;;;4906231;29;20423;-74
2024/02/09 04:24:47;;;;;;;25.88;11.95;;;;;;;;;;4905969;29;20055;-75
2024/02/09 04:27:18;;;;;;;16.40;11.98;;;;;;;;;;4906356;29;20040;-74
2024/02/09 04:29:49;;;;;;;20.75;12.05;;;;;;;;;;4906428;29;20558;-74
2024/02/09 04:32:20;;;;;;;17.10;11.68;;;;;;;;;;4904232;29;20090;-75
2024/02/09 04:34:51;;;;;;;19.70;12.00;;;;;;;;;;4910183;29;20074;-74
2024/02/09 04:37:21;;;;;;;17.85;12.13;;;;;;;;;;4909040;29;20504;-74
2024/02/09 04:39:52;;;;;;;19.08;12.68;;;;;;;;;;4909715;29;20059;-75
2024/02/09 04:42:22;;;;;;;19.05;13.73;;;;;;;;;;4910215;29;20052;-74
2024/02/09 04:44:53;;;;;;;19.10;13.68;;;;;;;;;;4909747;29;20047;-74
2024/02/09 04:47:23;;;;;;;24.48;15.15;;;;;;;;;;4909769;29;20419;-74
2024/02/09 04:49:53;;;;;;;23.08;13.85;;;;;;;;;;4909661;29;20546;-74
2024/02/09 04:52:27;;;;;;;23.45;13.93;;;;;;;;;;4909048;29;20350;-74
2024/02/09 04:54:57;;;;;;;24.27;13.43;;;;;;;;;;4910602;29;20503;-75
2024/02/09 04:57:29;;;;;;;21.63;13.85;;;;;;;;;;4909860;29;20056;-75
2024/02/09 05:00:01;;;;;;;22.50;13.82;;;;;;;;;;4910349;29;20098;-75
2024/02/09 05:02:37;;;;;;;20.42;13.77;;;;;;;;;;4910181;29;20048;-74
2024/02/09 05:05:08;;;;;;;20.95;14.48;;;;;;;;;;4909850;29;20056;-74
2024/02/09 05:07:40;;;;;;;20.92;14.18;;;;;;;;;;4909559;29;20056;-74
2024/02/09 05:10:11;;;;;;;23.63;14.93;;;;;;;;;;4909532;29;20810;-74
2024/02/09 05:12:42;;;;;;;20.50;15.13;;;;;;;;;;4909096;29;20060;-75
2024/02/09 05:15:13;;;;;;;22.98;15.70;;;;;;;;;;4909368;29;20064;-74
2024/02/09 05:17:44;;;;;;;20.92;14.82;;;;;;;;;;4909410;29;20052;-75
2024/02/09 05:20:14;;;;;;;23.80;15.57;;;;;;;;;;4907874;29;20056;-74
2024/02/09 05:22:46;;;;;;;23.27;14.75;;;;;;;;;;4909497;29;20063;-75
2024/02/09 05:25:20;;;;;;;20.33;14.50;;;;;;;;;;4908995;29;20511;-75
2024/02/09 05:27:53;;;;;;;19.50;13.43;;;;;;;;;;4910314;29;20060;-74
2024/02/09 05:30:29;;;;;;;23.98;15.98;;;;;;;;;;4909282;29;20729;-75
2024/02/09 05:33:02;;;;;;;23.20;15.07;;;;;;;;;;4909151;29;20052;-74
2024/02/09 05:35:34;;;;;;;26.58;16.52;;;;;;;;;;4909152;29;20050;-75
2024/02/09 05:38:05;;;;;;;20.52;14.15;;;;;;;;;;4909265;29;20052;-74
2024/02/09 05:40:35;;;;;;;25.25;18.08;;;;;;;;;;4909112;29;20052;-74
2024/02/09 05:43:05;;;;;;;22.17;16.00;;;;;;;;;;4909169;29;20048;-74
2024/02/09 05:45:36;;;;;;;26.48;16.98;;;;;;;;;;4908128;29;20059;-74
2024/02/09 05:48:09;;;;;;;24.25;16.73;;;;;;;;;;4908819;29;20048;-74
2024/02/09 05:50:41;;;;;;;24.13;16.25;;;;;;;;;;4909216;29;20057;-75
2024/02/09 05:53:13;;;;;;;24.40;16.17;;;;;;;;;;4909413;29;20058;-74
2024/02/09 05:55:45;;;;;;;22.02;16.05;;;;;;;;;;4908712;29;20048;-74
2024/02/09 05:58:17;;;;;;;27.02;15.95;;;;;;;;;;4906443;29;20562;-74
2024/02/09 06:00:47;;;;;;;26.65;16.85;;;;;;;;;;4907017;29;20385;-74
2024/02/09 06:03:18;;;;;;;26.63;17.08;;;;;;;;;;4908424;29;20056;-74
2024/02/09 06:05:49;;;;;;;20.80;15.23;;;;;;;;;;4908431;29;20059;-74
2024/02/09 06:08:20;;;;;;;23.55;15.80;;;;;;;;;;4908177;29;20048;-74
2024/02/09 06:10:52;;;;;;;22.90;15.50;;;;;;;;;;4908458;29;20059;-75
2024/02/09 06:13:22;;;;;;;22.25;14.32;;;;;;;;;;4907853;29;20063;-74
2024/02/09 06:15:57;;;;;;;22.63;14.52;;;;;;;;;;4907066;29;20522;-75
2024/02/09 06:18:30;;;;;;;25.42;14.73;;;;;;;;;;4908094;29;20056;-75
2024/02/09 06:21:00;;;;;;;20.63;14.68;;;;;;;;;;4908864;29;20044;-74
2024/02/09 06:23:34;;;;;;;23.10;14.88;;;;;;;;;;4909561;29;20060;-74
2024/02/09 06:26:05;;;;;;;21.65;15.23;;;;;;;;;;4907488;29;20055;-75
2024/02/09 06:28:36;;;;;;;22.17;14.23;;;;;;;;;;4908289;29;20052;-74
2024/02/09 06:31:07;;;;;;;21.55;14.60;;;;;;;;;;4908710;29;20052;-74
2024/02/09 06:33:37;;;;;;;25.20;15.32;;;;;;;;;;4907845;29;20055;-74
2024/02/09 06:36:10;;;;;;;23.90;15.18;;;;;;;;;;4907658;29;20059;-74
2024/02/09 06:38:43;;;;;;;22.45;15.98;;;;;;;;;;4908404;29;20059;-74
2024/02/09 06:41:13;;;;;;;22.38;14.60;;;;;;;;;;4907950;29;20048;-74
2024/02/09 06:43:43;;;;;;;23.45;14.52;;;;;;;;;;4907325;29;20044;-74
2024/02/09 06:46:16;;;;;;;25.83;15.18;;;;;;;;;;4907560;29;20052;-75
2024/02/09 06:48:48;;;;;;;21.17;14.88;;;;;;;;;;4907729;29;20059;-75
2024/02/09 06:51:20;;;;;;;23.90;15.23;;;;;;;;;;4908060;29;20507;-74
2024/02/09 06:53:54;;;;;;;23.23;15.27;;;;;;;;;;4906968;29;20393;-74
2024/02/09 06:56:25;;;;;;;21.20;14.40;;;;;;;;;;4907276;29;20056;-74
2024/02/09 06:59:00;;;;;;;20.92;13.50;;;;;;;;;;4905619;29;20192;-74
2024/02/09 07:01:31;;;;;;;20.58;13.57;;;;;;;;;;4907569;29;20044;-74
2024/02/09 07:04:05;;;;;;;28.65;14.07;;;;;;;;;;4907454;29;20059;-74
2024/02/09 07:06:37;;;;;;;24.77;13.80;;;;;;;;;;4907949;29;20064;-75
2024/02/09 07:09:13;;;;;;;20.88;13.15;;;;;;;;;;4907124;29;20531;-74
2024/02/09 07:12:04;;;;;;;19.70;12.93;;;;;;;;;;4908082;29;20055;-74
2024/02/09 07:14:34;;;;;;;27.83;13.38;;;;;;;;;;4907877;29;20048;-74
2024/02/09 07:17:04;;;;;;;20.83;13.15;;;;;;;;;;4906751;29;20040;-75
2024/02/09 07:19:35;;;;;;;19.45;13.00;;;;;;;;;;4906907;29;20060;-74
2024/02/09 07:22:07;;;;;;;23.63;13.85;;;;;;;;;;4906861;29;20404;-74
2024/02/09 07:24:38;;;;;;;19.55;12.77;;;;;;;;;;4907139;29;20063;-73
2024/02/09 07:27:09;;;;;;;19.27;12.70;;;;;;;;;;4907711;29;20047;-74
2024/02/09 07:29:40;;;;;;;19.52;12.32;;;;;;;;;;4907128;29;20056;-74
2024/02/09 07:32:13;;;;;;;15.80;11.90;;;;;;;;;;4907207;29;20060;-75
2024/02/09 07:34:43;;;;;;;21.45;12.43;;;;;;;;;;4906675;29;20052;-73
2024/02/09 07:37:15;;;;;;;18.55;11.57;;;;;;;;;;4904560;29;20063;-73
2024/02/09 07:39:45;;;;;;;17.77;12.15;;;;;;;;;;4905798;29;20059;-74
2024/02/09 07:42:18;;;;;;;17.67;11.80;;;;;;;;;;4907134;29;20063;-74
2024/02/09 07:44:48;;;;;;;17.60;11.98;;;;;;;;;;4906974;29;20044;-75
2024/02/09 07:47:20;;;;;;;19.02;11.68;;;;;;;;;;4905546;29;20059;-75
2024/02/09 07:49:50;;;;;;;19.30;11.75;;;;;;;;;;4906798;29;20063;-74
2024/02/09 07:52:21;;;;;;;19.45;11.13;;;;;;;;;;4905226;29;20051;-74
2024/02/09 07:54:53;;;;;;;17.08;11.60;;;;;;;;;;4907743;29;20516;-74
2024/02/09 07:57:23;;;;;;;18.95;11.55;;;;;;;;;;4906771;29;20056;-75
2024/02/09 07:59:56;;;;;;;20.35;12.73;;;;;;;;;;4906570;29;20075;-74
2024/02/09 08:02:30;;;;;;;25.95;12.95;;;;;;;;;;4905025;29;20056;-75
2024/02/09 08:05:06;;;;;;;20.80;12.98;;;;;;;;;;4906558;29;20511;-74
2024/02/09 08:07:37;;;;;;;19.98;12.00;;;;;;;;;;4906806;29;20059;-74
2024/02/09 08:10:10;;;;;;;25.42;12.32;;;;;;;;;;4906150;29;20059;-75
2024/02/09 08:12:42;;;;;;;17.52;11.82;;;;;;;;;;4906530;29;20149;-74
2024/02/09 08:15:12;;;;;;;18.02;12.98;;;;;;;;;;4906426;29;20421;-75
2024/02/09 08:17:48;;;;;;;21.27;12.70;;;;;;;;;;4906148;29;20488;-74
2024/02/09 08:20:23;;;;;;;18.45;11.70;;;;;;;;;;4906109;29;20060;-75
2024/02/09 08:22:55;;;;;;;20.05;12.15;;;;;;;;;;4906579;29;20051;-74
2024/02/09 08:25:26;;;;;;;16.08;11.23;;;;;;;;;;4905971;29;20048;-74
2024/02/09 08:27:56;;;;;;;19.13;11.85;;;;;;;;;;4906250;29;20507;-74
2024/02/09 08:30:27;;;;;;;19.73;12.30;;;;;;;;;;4906090;29;20048;-74
2024/02/09 08:33:00;;;;;;;25.27;13.65;;;;;;;;;;4906292;29;20048;-74
2024/02/09 08:35:31;;;;;;;16.42;12.57;;;;;;;;;;4906512;29;20048;-73
2024/02/09 08:38:02;;;;;;;16.33;10.93;;;;;;;;;;4905107;29;20052;-73
2024/02/09 08:40:31;;;;;;;17.98;11.50;;;;;;;;;;4905913;29;20059;-74
2024/02/09 08:43:03;;;;;;;17.17;11.45;;;;;;;;;;4904158;29;20067;-74
2024/02/09 08:45:35;;;;;;;17.05;11.23;;;;;;;;;;4906257;29;20048;-74
2024/02/09 08:48:06;;;;;;;16.17;10.25;;;;;;;;;;4906385;29;20377;-75
2024/02/09 08:50:37;;;;;;;18.48;12.32;;;;;;;;;;4905922;29;20778;-75
2024/02/09 08:53:07;;;;;;;17.58;11.07;;;;;;;;;;4904366;29;20056;-74
2024/02/09 08:55:39;;;;;;;20.40;13.23;;;;;;;;;;4905856;29;20048;-74
2024/02/09 08:58:09;;;;;;;17.45;10.88;;;;;;;;;;4905870;29;20056;-74
2024/02/09 09:00:40;;;;;;;18.63;11.02;;;;;;;;;;4906282;29;20055;-75
2024/02/09 09:03:27;;;;;;;19.77;12.70;;;;;;;;;;4905275;29;20509;-74
2024/02/09 09:05:59;;;;;;;17.40;10.93;;;;;;;;;;4906083;29;20075;-74
2024/02/09 09:08:30;;;;;;;21.63;11.88;;;;;;;;;;4906208;29;20048;-73
2024/02/09 09:11:01;;;;;;;20.80;11.90;;;;;;;;;;4906259;29;21151;-75
2024/02/09 09:13:33;;;;;;;19.75;12.13;;;;;;;;;;4905779;29;20056;-76
2024/02/09 09:16:04;;;;;;;26.58;13.05;;;;;;;;;;4904165;29;20052;-75
2024/02/09 09:18:35;;;;;;;17.17;12.13;;;;;;;;;;4905674;29;20060;-74
2024/02/09 09:21:05;;;;;;;19.50;11.05;;;;;;;;;;4908483;29;20059;-75
2024/02/09 09:23:37;;;;;;;20.35;12.40;;;;;;;;;;4907491;29;20052;-74
2024/02/09 09:26:09;;;;;;;20.40;11.55;;;;;;;;;;4909796;29;20074;-75
2024/02/09 09:28:53;;;;;;;19.25;10.65;;;;;;;;;;4909835;29;20060;-80
2024/02/09 09:31:25;;;;;;;21.45;12.52;;;;;;;;;;4908494;29;20503;-74
2024/02/09 09:33:58;;;;;;;21.52;11.95;;;;;;;;;;4909655;29;20048;-75
2024/02/09 09:36:33;;;;;;;20.95;12.38;;;;;;;;;;4910443;29;20403;-75
2024/02/09 09:39:05;;;;;;;23.08;13.40;;;;;;;;;;4909350;29;20056;-74
2024/02/09 09:41:37;;;;;;;19.65;11.25;;;;;;;;;;4908795;29;20614;-74
2024/02/09 09:44:08;;;;;;;25.65;12.20;;;;;;;;;;4909446;29;20059;-80
2024/02/09 09:46:41;;;;;;;25.23;13.15;;;;;;;;;;4908231;29;20408;-75
2024/02/09 09:49:13;;;;;;;23.80;12.93;;;;;;;;;;4909016;29;20059;-75
2024/02/09 09:51:50;;;;;;;28.45;12.65;;;;;;;;;;4907240;29;20075;-76
2024/02/09 09:54:23;;;;;;;22.05;13.00;;;;;;;;;;4908860;29;20052;-76
2024/02/09 09:56:55;;;;;;;32.13;12.80;;;;;;;;;;4908337;29;20537;-76
2024/02/09 09:59:27;;;;;;;26.70;12.93;;;;;;;;;;4908265;29;20512;-76
2024/02/09 10:01:57;;;;;;;30.08;13.65;;;;;;;;;;4909045;29;20044;-75
2024/02/09 10:04:29;;;;;;;31.52;13.32;;;;;;;;;;4909233;29;20052;-78
2024/02/09 10:07:05;;;;;;;53.42;17.13;;;;;;;;;;4908498;29;20403;-76
2024/02/09 10:09:35;;;;;;;24.65;13.80;;;;;;;;;;4908477;29;20904;-76
2024/02/09 10:12:06;;;;;;;23.73;12.27;;;;;;;;;;4908411;29;20063;-76
2024/02/09 10:14:44;;;;;;;20.05;12.35;;;;;;;;;;4908857;29;20044;-76
2024/02/09 10:17:16;;;;;;;19.38;12.10;;;;;;;;;;4908652;29;20048;-75
2024/02/09 10:19:47;;;;;;;31.73;12.35;;;;;;;;;;4909431;29;20048;-75
2024/02/09 10:22:18;;;;;;;25.33;11.50;;;;;;;;;;4908616;29;20052;-86
2024/02/09 10:24:56;;;;;;;27.52;11.43;;;;;;;;;;4907826;29;20048;-75
2024/02/09 10:27:26;;;;;;;24.15;11.13;;;;;;;;;;4907805;29;20059;-74
2024/02/09 10:29:59;;;;;;;22.75;11.18;;;;;;;;;;4907702;29;20059;-74
2024/02/09 10:32:32;;;;;;;20.15;10.68;;;;;;;;;;4908344;29;20060;-74
2024/02/09 10:35:06;;;;;;;16.88;10.85;;;;;;;;;;4908260;29;20541;-75
2024/02/09 10:37:37;;;;;;;17.60;12.20;;;;;;;;;;4907788;29;20427;-75
2024/02/09 10:40:08;;;;;;;21.60;10.65;;;;;;;;;;4907428;29;20047;-75
2024/02/09 10:42:40;;;;;;;22.13;10.95;;;;;;;;;;4906913;29;20553;-75
2024/02/09 10:45:13;;;;;;;20.23;10.30;;;;;;;;;;4907878;29;20052;-75
2024/02/09 10:47:54;;;;;;;18.30;8.88;;;;;;;;;;4908479;29;20063;-74
2024/02/09 10:50:30;;;;;;;13.18;8.30;;;;;;;;;;4907750;29;20499;-77
2024/02/09 10:53:04;;;;;;;15.98;9.18;;;;;;;;;;4907767;29;20044;-76
2024/02/09 10:55:39;;;;;;;17.60;8.93;;;;;;;;;;4907321;29;20051;-75
2024/02/09 10:58:12;;;;;;;10.45;7.90;;;;;;;;;;4907341;29;20106;-80
2024/02/09 11:00:42;;;;;;;16.80;8.15;;;;;;;;;;4907184;29;20048;-75
2024/02/09 11:03:13;;;;;;;11.68;7.10;;;;;;;;;;4907646;29;20052;-75
2024/02/09 11:05:44;;;;;;;13.05;7.40;;;;;;;;;;4907552;29;20063;-75
2024/02/09 11:08:15;;;;;;;16.02;7.88;;;;;;;;;;4907703;29;20056;-75
2024/02/09 11:10:58;;;;;;;17.70;7.85;;;;;;;;;;4907624;29;20507;-75
2024/02/09 11:13:29;;;;;;;18.27;7.45;;;;;;;;;;4907887;29;20048;-75
2024/02/09 11:16:01;;;;;;;21.30;7.88;;;;;;;;;;4906500;29;20133;-75
2024/02/09 11:19:04;;;;;;;24.98;7.63;;;;;;;;;;4907269;29;20052;-75
2024/02/09 11:22:07;;;;;;;32.72;7.05;;;;;;;;;;4906082;29;20512;-76
2024/02/09 11:25:01;;;;;;;29.80;7.47;;;;;;;;;;4905847;29;20033;-75
2024/02/09 11:27:32;;;;;;;14.57;5.72;;;;;;;;;;4907095;29;20059;-76
2024/02/09 11:30:04;;;;;;;11.98;5.38;;;;;;;;;;4905940;29;20048;-75
2024/02/09 11:32:42;;;;;;;11.52;5.57;;;;;;;;;;4906418;29;20060;-78
2024/02/09 11:35:17;;;;;;;10.10;5.43;;;;;;;;;;4906060;29;20063;-75
2024/02/09 11:37:50;;;;;;;12.05;5.28;;;;;;;;;;4906698;29;20055;-75
2024/02/09 11:40:21;;;;;;;7.65;5.13;;;;;;;;;;4907098;29;20052;-75
2024/02/09 11:42:52;;;;;;;13.65;5.47;;;;;;;;;;4906461;29;20055;-75
2024/02/09 11:45:22;;;;;;;15.05;5.50;;;;;;;;;;4906694;29;20059;-74
2024/02/09 11:47:53;;;;;;;13.48;5.68;;;;;;;;;;4906735;29;20099;-74
2024/02/09 11:50:24;;;;;;;8.82;4.70;;;;;;;;;;4905320;29;20052;-74
2024/02/09 11:53:06;;;;;;;16.20;5.22;;;;;;;;;;4907320;29;20056;-74
2024/02/09 11:55:44;;;;;;;10.88;5.50;;;;;;;;;;4906709;29;20511;-76
2024/02/09 11:58:16;;;;;;;16.92;5.43;;;;;;;;;;4906098;29;20507;-75
2024/02/09 12:00:51;;;;;;;19.58;5.10;;;;;;;;;;4906543;29;20064;-75
2024/02/09 12:03:22;;;;;;;18.67;12.07;;;;;;;;;;4906883;29;20055;-75
2024/02/09 12:05:53;;;;;;;11.48;5.30;;;;;;;;;;4906289;29;20527;-74
2024/02/09 12:08:25;;;;;;;17.63;5.78;;;;;;;;;;4906479;29;20052;-75
2024/02/09 12:10:56;;;;;;;9.95;5.07;;;;;;;;;;4906675;29;20052;-78
2024/02/09 12:13:31;;;;;;;12.40;5.05;;;;;;;;;;4905948;29;20055;-76
2024/02/09 12:16:07;;;;;;;13.85;4.85;;;;;;;;;;4904392;29;20534;-79
2024/02/09 12:18:37;;;;;;;;;;;;;;;;;;4907280;29;20420;-76
2024/02/09 12:21:07;;;;;;;10.43;5.53;;;;;;;;;;4904188;29;19950;-76
2024/02/09 12:23:38;;;;;;;8.98;4.90;;;;;;;;;;4905922;29;20055;-76
2024/02/09 12:26:09;;;;;;;8.23;5.00;;;;;;;;;;4905803;29;20040;-76
2024/02/09 12:28:40;;;;;;;13.73;5.03;;;;;;;;;;4906638;29;20051;-82
2024/02/09 12:31:16;;;;;;;10.18;4.93;;;;;;;;;;4906045;29;20047;-76
2024/02/09 12:33:48;;;;;;;10.77;4.68;;;;;;;;;;4906918;29;20048;-76
2024/02/09 12:36:20;;;;;;;7.00;4.35;;;;;;;;;;4889683;29;20056;-77
2024/02/09 12:38:56;;;;;;;8.77;4.63;;;;;;;;;;4906197;29;20055;-75
2024/02/09 12:41:26;;;;;;;10.65;5.10;;;;;;;;;;4905915;29;20056;-75
2024/02/09 12:43:59;;;;;;;7.75;4.95;;;;;;;;;;4905798;29;20051;-77
2024/02/09 12:46:34;;;;;;;9.40;4.60;;;;;;;;;;4905760;29;20048;-76
2024/02/09 12:49:08;;;;;;;12.27;4.70;;;;;;;;;;4905634;29;20048;-76
2024/02/09 12:51:39;;;;;;;11.02;5.03;;;;;;;;;;4905811;29;20056;-77
2024/02/09 12:54:11;;;;;;;13.25;4.55;;;;;;;;;;4905582;29;20052;-75
2024/02/09 12:56:42;;;;;;;10.95;5.15;;;;;;;;;;4907571;29;20474;-76
2024/02/09 12:59:15;;;;;;;12.05;4.80;;;;;;;;;;4909663;29;20063;-77
2024/02/09 13:01:53;;;;;;;12.43;4.60;;;;;;;;;;4907945;29;20058;-77
2024/02/09 13:04:23;;;;;;;11.35;5.15;;;;;;;;;;4910105;29;20051;-77
2024/02/09 13:06:55;;;;;;;6.97;4.90;;;;;;;;;;4909562;29;20048;-77
2024/02/09 13:09:28;;;;;;;8.02;4.68;;;;;;;;;;4909548;29;20048;-76
2024/02/09 13:11:59;;;;;;;8.00;4.50;;;;;;;;;;4907776;29;20056;-77
2024/02/09 13:14:29;;;;;;;6.80;4.72;;;;;;;;;;4909592;29;20518;-77
2024/02/09 13:17:00;;;;;;;15.68;5.03;;;;;;;;;;4909277;29;20408;-76
2024/02/09 13:19:32;;;;;;;10.10;4.75;;;;;;;;;;4909662;29;20052;-78
2024/02/09 13:22:04;;;;;;;8.95;4.82;;;;;;;;;;4909138;29;20055;-77
2024/02/09 13:24:39;;;;;;;10.02;4.45;;;;;;;;;;4909410;29;20060;-77
2024/02/09 13:27:14;;;;;;;8.02;5.03;;;;;;;;;;4909651;29;20451;-75
2024/02/09 13:29:44;;;;;;;10.98;4.80;;;;;;;;;;4909050;29;20059;-75
2024/02/09 13:32:16;;;;;;;12.93;4.57;;;;;;;;;;4909181;29;21170;-76
2024/02/09 13:34:46;;;;;;;7.70;4.75;;;;;;;;;;4909080;29;20056;-75
2024/02/09 13:37:17;;;;;;;7.90;5.03;;;;;;;;;;4909379;29;20490;-76
2024/02/09 13:39:47;;;;;;;6.18;4.47;;;;;;;;;;4908990;29;20052;-76
2024/02/09 13:42:17;;;;;;;8.15;4.85;;;;;;;;;;4908912;29;20514;-76
2024/02/09 13:44:48;;;;;;;7.38;4.10;;;;;;;;;;4907562;29;20063;-76
2024/02/09 13:47:19;;;;;;;9.98;4.72;;;;;;;;;;4908707;29;20063;-76
2024/02/09 13:49:50;;;;;;;8.02;4.65;;;;;;;;;;4908825;29;20044;-76
2024/02/09 13:52:20;;;;;;;7.93;4.28;;;;;;;;;;4907910;29;20056;-76
2024/02/09 13:54:52;;;;;;;7.05;4.38;;;;;;;;;;4909700;29;20052;-76
2024/02/09 13:57:23;;;;;;;7.72;4.40;;;;;;;;;;4909213;29;20496;-76
2024/02/09 13:59:54;;;;;;;7.05;4.68;;;;;;;;;;4908552;29;20419;-75
2024/02/09 14:02:25;;;;;;;12.82;4.88;;;;;;;;;;4908949;29;20056;-74
2024/02/09 14:04:55;;;;;;;10.32;4.68;;;;;;;;;;4908496;29;20059;-74
2024/02/09 14:07:27;;;;;;;8.38;4.43;;;;;;;;;;4907635;29;20052;-74
2024/02/09 14:10:00;;;;;;;7.78;4.35;;;;;;;;;;4908915;29;20048;-74
2024/02/09 14:12:31;;;;;;;7.40;4.47;;;;;;;;;;4908227;29;20512;-74
2024/02/09 14:15:01;;;;;;;6.95;4.25;;;;;;;;;;4908186;29;20064;-74
2024/02/09 14:17:35;;;;;;;8.55;4.47;;;;;;;;;;4908483;29;20059;-75
2024/02/09 14:20:07;;;;;;;7.60;4.55;;;;;;;;;;4908198;29;20056;-74
2024/02/09 14:22:38;;;;;;;14.90;4.95;;;;;;;;;;4908417;29;20684;-74
2024/02/09 14:25:09;;;;;;;8.35;4.28;;;;;;;;;;4908290;29;20341;-74
2024/02/09 14:27:43;;;;;;;6.70;4.28;;;;;;;;;;4908000;29;20052;-75
2024/02/09 14:30:35;;;;;;;8.65;4.68;;;;;;;;;;4908389;29;20063;-74
2024/02/09 14:33:28;;;;;;;5.88;4.60;;;;;;;;;;4907531;29;20056;-73
2024/02/09 14:38:53;;;;;;;7.20;4.75;;;;;;;;;;4907488;29;20060;-74
2024/02/09 14:41:24;;;;;;;10.63;4.55;;;;;;;;;;4907039;29;20052;-75
2024/02/09 14:43:54;;;;;;;9.07;4.75;;;;;;;;;;4907869;29;20066;-74
2024/02/09 14:46:25;;;;;;;5.35;4.20;;;;;;;;;;4908761;29;20052;-75
2024/02/09 14:48:56;;;;;;;7.68;3.83;;;;;;;;;;4907335;29;20508;-75
2024/02/09 14:51:27;;;;;;;12.43;4.80;;;;;;;;;;4907741;29;20055;-75
2024/02/09 14:53:58;;;;;;;6.13;4.50;;;;;;;;;;4907410;29;20048;-75
2024/02/09 14:56:28;;;;;;;10.77;4.72;;;;;;;;;;4907446;29;20044;-75
2024/02/09 14:59:05;;;;;;;7.18;3.88;;;;;;;;;;4907154;29;20059;-76
2024/02/09 15:01:38;;;;;;;9.57;4.35;;;;;;;;;;4907529;29;20416;-76
2024/02/09 15:04:10;;;;;;;7.10;4.20;;;;;;;;;;4907346;29;20063;-79
2024/02/09 15:06:46;;;;;;;10.48;4.68;;;;;;;;;;4907131;29;20520;-76
2024/02/09 15:09:20;;;;;;;6.63;3.85;;;;;;;;;;4906346;29;20542;-76
2024/02/09 15:11:52;;;;;;;6.88;4.40;;;;;;;;;;4907320;29;20052;-76
2024/02/09 15:14:23;;;;;;;9.85;4.55;;;;;;;;;;4907519;29;20393;-75
2024/02/09 15:17:07;;;;;;;8.32;4.65;;;;;;;;;;4906980;29;20083;-75
2024/02/09 15:19:43;;;;;;;5.18;3.90;;;;;;;;;;4905335;29;20515;-75
2024/02/09 15:22:18;;;;;;;9.63;4.32;;;;;;;;;;4907324;29;20044;-75
2024/02/09 15:24:49;;;;;;;4.97;3.78;;;;;;;;;;4905454;29;20067;-76
2024/02/09 15:27:19;;;;;;;9.10;4.45;;;;;;;;;;4906900;29;20055;-75
2024/02/09 15:29:52;;;;;;;7.45;4.30;;;;;;;;;;4906946;29;20055;-75
2024/02/09 15:32:25;;;;;;;9.50;3.80;;;;;;;;;;4907199;29;20553;-75
2024/02/09 15:34:58;;;;;;;6.43;4.00;;;;;;;;;;4905082;29;20507;-74
2024/02/09 15:37:31;;;;;;;9.60;4.63;;;;;;;;;;4906722;29;20103;-75
2024/02/09 15:40:03;;;;;;;5.65;4.13;;;;;;;;;;4906801;29;20055;-75
2024/02/09 15:42:34;;;;;;;7.07;4.53;;;;;;;;;;4907083;29;20381;-76
2024/02/09 15:45:06;;;;;;;6.07;4.50;;;;;;;;;;4906358;29;20055;-76
2024/02/09 15:47:36;;;;;;;8.50;4.32;;;;;;;;;;4907191;29;20044;-74
2024/02/09 15:50:11;;;;;;;4.28;3.40;;;;;;;;;;4907009;29;20602;-79
2024/02/09 15:52:44;;;;;;;5.40;3.42;;;;;;;;;;4905140;29;20048;-76
2024/02/09 15:55:16;;;;;;;4.68;3.33;;;;;;;;;;4906637;29;20055;-78
2024/02/09 15:57:47;;;;;;;5.45;3.90;;;;;;;;;;4906329;29;20060;-78
2024/02/09 16:00:23;;;;;;;7.03;4.82;;;;;;;;;;4906883;29;20059;-77
2024/02/09 16:02:56;;;;;;;6.65;3.70;;;;;;;;;;4906280;29;20055;-76
2024/02/09 16:05:30;;;;;;;8.63;3.63;;;;;;;;;;4906600;29;20044;-78
2024/02/09 16:08:00;;;;;;;10.25;4.20;;;;;;;;;;4905551;29;20529;-76
2024/02/09 16:10:34;;;;;;;6.25;4.15;;;;;;;;;;4906314;29;20052;-79
2024/02/09 16:13:06;;;;;;;7.05;3.92;;;;;;;;;;4905866;29;20075;-77
2024/02/09 16:15:42;;;;;;;5.80;3.80;;;;;;;;;;4905858;29;20463;-77
2024/02/09 16:18:12;;;;;;;5.70;3.80;;;;;;;;;;4906532;29;20526;-76
2024/02/09 16:20:43;;;;;;;7.22;3.72;;;;;;;;;;4905811;29;20055;-76
2024/02/09 16:23:14;;;;;;;7.63;3.72;;;;;;;;;;4906277;29;20062;-76
2024/02/09 16:25:46;;;;;;;7.60;3.80;;;;;;;;;;4904572;29;20507;-76
2024/02/09 16:28:33;;;;;;;14.07;4.15;;;;;;;;;;4904127;29;20063;-77
2024/02/09 16:31:08;;;;;;;9.70;4.05;;;;;;;;;;4904728;29;20056;-76
2024/02/09 16:33:39;;;;;;;6.03;3.83;;;;;;;;;;4905967;29;20056;-76
2024/02/09 16:36:09;;;;;;;8.20;3.83;;;;;;;;;;4905883;29;20047;-76
2024/02/09 16:38:40;;;;;;;8.98;4.25;;;;;;;;;;4906654;29;20040;-79
2024/02/09 16:41:11;;;;;;;4.88;4.10;;;;;;;;;;4906592;29;20056;-75
2024/02/09 16:43:45;;;;;;;8.65;3.63;;;;;;;;;;4905546;29;20060;-77
2024/02/09 16:46:17;;;;;;;6.90;4.30;;;;;;;;;;4907083;29;20048;-76
2024/02/09 16:48:48;;;;;;;9.88;4.10;;;;;;;;;;4904996;29;20048;-76
2024/02/09 16:51:20;;;;;;;10.45;3.97;;;;;;;;;;4905283;29;20059;-74
2024/02/09 16:53:54;;;;;;;6.65;4.05;;;;;;;;;;4905269;29;20055;-77